createdAt,value
2023-01-13T18:41:25.361Z,53.20
2023-01-13T18:43:52.571Z,61.60
2023-01-13T18:46:19.912Z,60.50
2023-01-13T18:48:47.369Z,61.05
2023-01-13T18:51:14.738Z,61.13
2023-01-13T18:53:41.908Z,63.75
2023-01-13T18:56:14.145Z,64.95
2023-01-13T18:58:50.882Z,63.42
2023-01-13T19:01:27.603Z,66.82
2023-01-13T19:04:04.859Z,65.57
2023-01-13T19:06:33.779Z,70.05
2023-01-13T19:09:08.651Z,68.82
2023-01-13T19:11:36.351Z,69.63
2023-01-13T19:14:04.424Z,71.00
2023-01-13T19:16:31.633Z,73.40
2023-01-13T19:18:59.883Z,71.03
2023-01-13T19:21:28.127Z,69.90
2023-01-13T19:23:56.881Z,71.88
2023-01-13T19:26:24.016Z,73.20
2023-01-13T19:28:51.168Z,63.90
2023-01-13T19:31:20.631Z,65.82
2023-01-13T19:33:47.925Z,63.10
2023-01-13T19:36:15.111Z,61.53
2023-01-13T19:38:42.235Z,61.95
2023-01-13T19:41:34.143Z,61.08
2023-01-13T19:44:20.032Z,59.08
2023-01-13T19:46:47.142Z,61.35
2023-01-13T19:49:14.335Z,60.55
2023-01-13T19:51:41.512Z,66.05
2023-01-13T19:54:08.634Z,52.20
2023-01-13T19:56:35.803Z,54.47
2023-01-13T19:59:03.653Z,55.97
2023-01-13T20:01:31.792Z,54.08
2023-01-13T20:04:07.478Z,62.25
2023-01-13T20:06:34.691Z,55.95
2023-01-13T20:09:01.880Z,56.70
2023-01-13T20:11:31.711Z,61.92
2023-01-13T20:14:00.512Z,53.42
2023-01-13T20:16:29.879Z,47.33
2023-01-13T20:18:57.196Z,59.92
2023-01-13T20:21:24.410Z,57.33
2023-01-13T20:23:53.249Z,57.33
2023-01-13T20:26:21.262Z,55.90
2023-01-13T20:28:48.562Z,60.75
2023-01-13T20:31:16.310Z,62.95
2023-01-13T20:33:43.967Z,59.78
2023-01-13T20:36:31.401Z,57.25
2023-01-13T20:39:00.431Z,54.22
2023-01-13T20:41:54.077Z,55.67
2023-01-13T20:44:21.290Z,57.00
2023-01-13T20:46:48.554Z,56.67
2023-01-13T20:49:16.553Z,57.83
2023-01-13T20:51:43.808Z,57.85
2023-01-13T20:54:11.101Z,55.75
2023-01-13T20:56:38.690Z,52.55
2023-01-13T20:59:06.116Z,53.22
2023-01-13T21:01:34.034Z,55.55
2023-01-13T21:04:01.614Z,52.92
2023-01-13T21:06:30.058Z,56.63
2023-01-13T21:08:57.612Z,49.10
2023-01-13T21:11:46.487Z,48.20
2023-01-13T21:14:41.717Z,49.13
2023-01-13T21:17:37.729Z,49.25
2023-01-13T21:20:08.739Z,53.33
2023-01-13T21:22:36.200Z,44.47
2023-01-13T21:25:05.207Z,48.88
2023-01-13T21:27:32.913Z,47.45
2023-01-13T21:30:00.100Z,48.10
2023-01-13T21:32:27.250Z,47.20
2023-01-13T21:34:54.507Z,45.03
2023-01-13T21:37:22.149Z,47.08
2023-01-13T21:39:49.356Z,46.50
2023-01-13T21:42:36.440Z,46.78
2023-01-13T21:45:23.579Z,46.33
2023-01-13T21:47:51.888Z,45.63
2023-01-13T21:50:26.938Z,47.70
2023-01-13T21:52:55.870Z,47.70
2023-01-13T21:55:28.850Z,49.03
2023-01-13T21:58:10.389Z,56.47
2023-01-13T22:00:39.494Z,53.08
2023-01-13T22:03:08.946Z,54.40
2023-01-13T22:05:37.066Z,59.22
2023-01-13T22:08:05.631Z,53.83
2023-01-13T22:10:33.241Z,54.20
2023-01-13T22:13:22.857Z,54.53
2023-01-13T22:15:50.446Z,53.47
2023-01-13T22:18:20.641Z,52.28
2023-01-13T22:20:49.097Z,53.38
2023-01-13T22:23:16.207Z,53.28
2023-01-13T22:25:43.392Z,52.00
2023-01-13T22:28:13.729Z,52.42
2023-01-13T22:30:40.994Z,59.03
2023-01-13T22:33:08.194Z,55.78
2023-01-13T22:35:35.359Z,56.40
2023-01-13T22:38:02.486Z,51.88
2023-01-13T22:40:29.619Z,50.92
2023-01-13T22:42:56.730Z,48.40
2023-01-13T22:45:23.975Z,49.97
2023-01-13T22:47:51.261Z,52.50
2023-01-13T22:50:20.810Z,58.70
2023-01-13T22:52:48.155Z,59.50
2023-01-13T22:55:15.394Z,61.65
2023-01-13T22:57:48.090Z,59.00
2023-01-13T23:00:18.914Z,62.38
2023-01-13T23:02:46.674Z,60.55
2023-01-13T23:05:14.018Z,64.22
2023-01-13T23:07:41.245Z,60.60
2023-01-13T23:10:09.546Z,64.55
2023-01-13T23:12:36.887Z,64.35
2023-01-13T23:15:05.358Z,64.82
2023-01-13T23:17:32.642Z,63.45
2023-01-13T23:19:59.874Z,63.75
2023-01-13T23:22:27.117Z,60.63
2023-01-13T23:24:54.335Z,61.35
2023-01-13T23:27:21.502Z,58.13
2023-01-13T23:29:49.115Z,57.55
2023-01-13T23:32:16.275Z,58.22
2023-01-13T23:34:43.388Z,59.03
2023-01-13T23:37:10.599Z,56.25
2023-01-13T23:39:37.828Z,55.25
2023-01-13T23:42:05.006Z,58.22
2023-01-13T23:44:32.243Z,55.58
2023-01-13T23:46:59.483Z,57.35
2023-01-13T23:49:26.813Z,55.60
2023-01-13T23:51:54.106Z,56.97
2023-01-13T23:54:21.466Z,58.80
2023-01-13T23:56:50.449Z,57.47
2023-01-13T23:59:17.575Z,58.55
